createdAt,value
2023-02-19T00:04:56.962Z,76
2023-02-19T00:09:56.920Z,75.9
2023-02-19T00:14:56.940Z,76.1
2023-02-19T00:19:56.920Z,78.7
2023-02-19T00:24:56.901Z,80.1
2023-02-19T00:29:56.913Z,79
2023-02-19T00:34:56.881Z,79.1
2023-02-19T00:39:56.870Z,78.8
2023-02-19T00:44:56.855Z,78.5
2023-02-19T00:49:56.933Z,78.5
2023-02-19T00:54:56.865Z,78.4
2023-02-19T00:59:56.873Z,78.3
2023-02-19T01:04:56.927Z,78
2023-02-19T01:09:56.831Z,77.6
2023-02-19T01:14:56.838Z,77.9
2023-02-19T01:19:56.826Z,77.7
2023-02-19T01:24:56.881Z,77.7
2023-02-19T01:29:56.843Z,77.6
2023-02-19T01:34:56.833Z,77.9
2023-02-19T01:39:56.819Z,77.6
2023-02-19T01:44:56.824Z,78
2023-02-19T01:49:56.826Z,79.1
2023-02-19T01:54:56.794Z,80.1
2023-02-19T01:59:56.816Z,81.9
2023-02-19T02:04:56.798Z,83.5
2023-02-19T02:09:56.790Z,85
2023-02-19T02:14:56.791Z,85.4
2023-02-19T02:19:56.772Z,86
2023-02-19T02:24:56.772Z,87
2023-02-19T02:29:56.781Z,88.5
2023-02-19T02:34:56.749Z,91.1
2023-02-19T02:39:56.743Z,91.6
2023-02-19T02:44:56.759Z,93.2
2023-02-19T02:49:57.000Z,93.2
2023-02-19T02:54:56.732Z,93.7
2023-02-19T02:59:56.762Z,94
2023-02-19T03:04:56.732Z,94.2
2023-02-19T03:09:56.725Z,94.4
2023-02-19T03:14:56.726Z,95
2023-02-19T03:19:56.726Z,95.3
2023-02-19T03:24:56.757Z,95.5
2023-02-19T03:29:56.707Z,95.6
2023-02-19T03:34:56.705Z,96.7
2023-02-19T03:39:56.710Z,96.9
2023-02-19T03:44:56.712Z,97.2
2023-02-19T03:49:56.713Z,97.5
2023-02-19T03:54:56.705Z,97.9
2023-02-19T03:59:56.677Z,97.8
2023-02-19T04:04:56.735Z,97.9
2023-02-19T04:09:56.694Z,98.1
2023-02-19T04:14:56.690Z,97.8
2023-02-19T04:19:56.677Z,97.9
2023-02-19T04:24:56.659Z,97.9
2023-02-19T04:29:56.653Z,97.8
2023-02-19T04:34:56.654Z,97.7
2023-02-19T04:39:56.657Z,97.2
2023-02-19T04:44:56.634Z,97.2
2023-02-19T04:49:56.653Z,97.1
2023-02-19T04:54:56.649Z,97
2023-02-19T04:59:56.624Z,96.9
2023-02-19T05:04:56.605Z,96.9
2023-02-19T05:09:56.642Z,96.8
2023-02-19T05:14:56.644Z,96.4
2023-02-19T05:19:56.617Z,96
2023-02-19T05:24:56.586Z,95.7
2023-02-19T05:29:56.592Z,95.8
2023-02-19T05:34:56.598Z,95.6
2023-02-19T05:39:56.591Z,95.5
2023-02-19T05:44:56.591Z,95.1
2023-02-19T05:54:56.576Z,95
2023-02-19T06:04:56.580Z,94.4
2023-02-19T06:09:56.578Z,94
2023-02-19T06:14:56.568Z,93.9
2023-02-19T06:19:56.550Z,93.7
2023-02-19T06:24:56.541Z,93.7
2023-02-19T06:34:56.549Z,93
2023-02-19T06:39:56.525Z,92.7
2023-02-19T06:44:56.546Z,92.3
2023-02-19T06:49:56.543Z,91.8
2023-02-19T06:54:56.547Z,90.9
2023-02-19T06:59:56.534Z,90
2023-02-19T07:04:56.518Z,89.9
2023-02-19T07:09:56.536Z,89.4
2023-02-19T07:14:56.512Z,89.2
2023-02-19T07:19:56.508Z,89
2023-02-19T07:24:56.507Z,88.8
2023-02-19T07:29:56.504Z,88.3
2023-02-19T07:34:56.528Z,89
2023-02-19T07:39:56.488Z,89.4
2023-02-19T07:44:57.519Z,91.3
2023-02-19T07:49:56.504Z,92
2023-02-19T07:54:56.477Z,92.7
2023-02-19T07:59:56.472Z,93.1
2023-02-19T08:04:56.467Z,94.2
2023-02-19T08:09:56.469Z,94.8
2023-02-19T08:14:56.492Z,96.3
2023-02-19T08:19:56.564Z,97
2023-02-19T08:24:56.437Z,97
2023-02-19T08:29:56.450Z,97
2023-02-19T08:34:56.449Z,96.1
2023-02-19T08:39:56.419Z,98
2023-02-19T08:44:56.424Z,97
2023-02-19T08:49:56.430Z,95.4
2023-02-19T08:54:56.454Z,95.1
2023-02-19T09:04:56.396Z,93.8
2023-02-19T09:14:56.387Z,92
2023-02-19T09:19:56.413Z,91.5
2023-02-19T09:29:56.388Z,90
2023-02-19T09:39:56.397Z,89.7
2023-02-19T09:44:56.377Z,89.2
2023-02-19T09:49:56.403Z,87.9
2023-02-19T09:54:57.235Z,88.7
2023-02-19T09:59:56.360Z,90.5
2023-02-19T10:04:56.403Z,89.4
2023-02-19T10:09:56.361Z,88.8
2023-02-19T10:14:56.347Z,84
2023-02-19T10:24:56.326Z,79.3
2023-02-19T10:29:56.308Z,77.1
2023-02-19T10:34:56.313Z,76.7
2023-02-19T10:39:56.321Z,76.4
2023-02-19T10:44:56.321Z,75.7
2023-02-19T10:49:56.314Z,75.7
2023-02-19T10:54:56.299Z,76.3
2023-02-19T10:59:56.289Z,76
2023-02-19T11:04:56.301Z,74.6
2023-02-19T11:09:56.307Z,73.7
2023-02-19T11:14:56.271Z,73.4
2023-02-19T11:19:56.266Z,71.9
2023-02-19T11:24:59.196Z,66.1
2023-02-19T11:29:56.272Z,66.8
2023-02-19T11:34:56.263Z,66.1
2023-02-19T11:39:56.347Z,66
2023-02-19T11:44:56.241Z,66
2023-02-19T11:49:56.235Z,65.4
2023-02-19T11:54:56.248Z,64.7
2023-02-19T11:59:56.253Z,64
2023-02-19T12:04:56.225Z,65.8
2023-02-19T12:09:56.223Z,65.5
2023-02-19T12:14:56.228Z,67.3
2023-02-19T12:19:56.221Z,68.1
2023-02-19T12:24:56.197Z,69.1
2023-02-19T12:29:56.217Z,71.8
2023-02-19T12:34:56.191Z,72.3
2023-02-19T12:39:56.196Z,71.8
2023-02-19T12:44:56.210Z,68.7
2023-02-19T12:49:56.161Z,68.5
2023-02-19T12:54:56.204Z,70.5
2023-02-19T12:59:56.149Z,70.9
2023-02-19T13:04:56.169Z,70.9
2023-02-19T13:09:56.177Z,69.5
2023-02-19T13:14:56.196Z,71.7
2023-02-19T13:19:56.142Z,71.9
2023-02-19T13:24:56.145Z,71.2
2023-02-19T13:29:56.149Z,70.3
2023-02-19T13:34:56.187Z,69.5
2023-02-19T13:39:56.173Z,68.6
2023-02-19T13:44:57.131Z,68.5
2023-02-19T13:49:56.150Z,68
2023-02-19T13:54:56.115Z,68
2023-02-19T13:59:56.123Z,68.3
2023-02-19T14:09:56.120Z,70.6
2023-02-19T14:14:56.096Z,70.9
2023-02-19T14:19:56.115Z,71.3
2023-02-19T14:24:56.085Z,71.9
2023-02-19T14:29:56.071Z,72.6
2023-02-19T14:34:56.061Z,72.6
2023-02-19T14:39:56.055Z,72.7
2023-02-19T14:44:56.066Z,72.6
2023-02-19T14:49:56.058Z,72.1
2023-02-19T14:54:56.058Z,72.2
2023-02-19T14:59:56.040Z,72.3
2023-02-19T15:04:56.289Z,71.9
2023-02-19T15:09:56.062Z,71.9
2023-02-19T15:14:56.011Z,72.1
2023-02-19T15:19:56.009Z,72.4
2023-02-19T15:24:56.020Z,72.5
2023-02-19T15:29:56.010Z,72.8
2023-02-19T15:34:56.017Z,73
2023-02-19T15:39:56.022Z,73.6
2023-02-19T15:44:55.985Z,74.1
2023-02-19T15:49:56.008Z,74.4
2023-02-19T15:54:56.019Z,76.2
2023-02-19T15:59:55.992Z,77.5
2023-02-19T16:04:56.007Z,78.4
2023-02-19T16:09:55.997Z,79
2023-02-19T16:14:55.984Z,79.9
2023-02-19T16:19:55.994Z,81.3
2023-02-19T16:24:55.985Z,82
2023-02-19T16:29:56.140Z,82.5
2023-02-19T16:34:55.955Z,83.2
2023-02-19T16:39:55.957Z,83
2023-02-19T16:44:55.964Z,82.9
2023-02-19T16:49:55.958Z,82.4
2023-02-19T16:54:55.968Z,82.1
2023-02-19T16:59:55.940Z,81.5
2023-02-19T17:04:56.014Z,81.5
2023-02-19T17:09:55.930Z,81
2023-02-19T17:14:55.910Z,81.3
2023-02-19T17:19:55.930Z,81.6
2023-02-19T17:24:55.910Z,81.6
2023-02-19T17:29:55.913Z,81.6
2023-02-19T17:34:55.907Z,81.6
2023-02-19T17:39:55.982Z,81.4
2023-02-19T17:44:55.902Z,81
2023-02-19T17:49:55.885Z,80.7
2023-02-19T17:54:55.900Z,80.1
2023-02-19T17:59:55.901Z,79.9
2023-02-19T18:04:55.892Z,79.7
2023-02-19T18:09:55.865Z,79.6
2023-02-19T18:14:55.882Z,79.8
2023-02-19T18:19:55.879Z,79.9
2023-02-19T18:24:55.862Z,80.1
2023-02-19T18:29:55.869Z,80.3
2023-02-19T18:34:55.860Z,80.4
2023-02-19T18:39:55.863Z,80.6
2023-02-19T18:44:55.845Z,80.8
2023-02-19T18:49:55.868Z,80.8
2023-02-19T18:54:55.813Z,81
2023-02-19T18:59:55.834Z,81.1
2023-02-19T19:04:55.816Z,81.3
2023-02-19T19:09:55.822Z,81.6
2023-02-19T19:14:55.814Z,81.7
2023-02-19T19:19:55.844Z,82
2023-02-19T19:24:55.814Z,82.2
2023-02-19T19:29:55.822Z,82.3
2023-02-19T19:34:55.815Z,82.4
2023-02-19T19:39:55.799Z,82.4
2023-02-19T19:44:55.822Z,82.5
2023-02-19T19:49:55.782Z,82.4
2023-02-19T19:54:55.784Z,82.5
2023-02-19T19:59:55.790Z,82.2
2023-02-19T20:04:55.834Z,82.2
2023-02-19T20:09:55.801Z,81.8
2023-02-19T20:14:55.755Z,81.4
2023-02-19T20:19:55.759Z,81.3
2023-02-19T20:24:55.750Z,81
2023-02-19T20:29:55.734Z,80.5
2023-02-19T20:34:55.744Z,80.6
2023-02-19T20:44:55.721Z,81
2023-02-19T20:49:55.739Z,81
2023-02-19T20:59:55.791Z,81.1
2023-02-19T21:09:55.754Z,81.3
2023-02-19T21:19:55.710Z,81.4
2023-02-19T21:24:55.693Z,81.4
2023-02-19T21:29:55.699Z,81.6
2023-02-19T21:34:55.694Z,81.6
2023-02-19T21:39:55.681Z,81.9
2023-02-19T21:44:55.689Z,81.9
2023-02-19T21:49:55.690Z,82
2023-02-19T21:54:55.663Z,82.1
2023-02-19T21:59:55.698Z,82
2023-02-19T22:04:55.692Z,81.9
2023-02-19T22:09:55.684Z,81.8
2023-02-19T22:14:55.667Z,81.4
2023-02-19T22:19:55.631Z,81.5
2023-02-19T22:24:55.630Z,81.6
2023-02-19T22:29:55.637Z,81.3
2023-02-19T22:34:55.637Z,81.4
2023-02-19T22:39:55.636Z,81.3
2023-02-19T22:44:55.663Z,81.2
2023-02-19T22:54:55.635Z,81
2023-02-19T22:59:55.610Z,81
2023-02-19T23:11:45.930Z,81.2
2023-02-19T23:24:55.592Z,81.3
2023-02-19T23:29:55.595Z,81.4
2023-02-19T23:34:55.582Z,81.5
2023-02-19T23:39:55.571Z,81.3
2023-02-19T23:44:55.570Z,81.3
2023-02-19T23:54:55.559Z,81.7
